sensor_id;sensor_type;location;lat;lon;timestamp;P1;durP1;ratioP1;P2;durP2;ratioP2
6665;SDS011;3369;49.906;8.598;2023-03-03T00:05:02;15.23;;;8.07;;
6665;SDS011;3369;49.906;8.598;2023-03-03T00:07:47;19.87;;;9.10;;
6665;SDS011;3369;49.906;8.598;2023-03-03T00:10:13;18.17;;;8.63;;
6665;SDS011;3369;49.906;8.598;2023-03-03T00:15:51;15.87;;;9.27;;
6665;SDS011;3369;49.906;8.598;2023-03-03T00:18:51;15.60;;;7.93;;
6665;SDS011;3369;49.906;8.598;2023-03-03T00:21:27;11.33;;;7.53;;
6665;SDS011;3369;49.906;8.598;2023-03-03T00:24:14;13.23;;;7.53;;
6665;SDS011;3369;49.906;8.598;2023-03-03T00:26:53;12.07;;;7.70;;
6665;SDS011;3369;49.906;8.598;2023-03-03T00:29:59;11.43;;;7.77;;
6665;SDS011;3369;49.906;8.598;2023-03-03T00:32:53;13.23;;;8.73;;
6665;SDS011;3369;49.906;8.598;2023-03-03T00:35:49;12.77;;;8.27;;
6665;SDS011;3369;49.906;8.598;2023-03-03T00:38:16;10.13;;;7.33;;
6665;SDS011;3369;49.906;8.598;2023-03-03T00:40:50;10.27;;;7.43;;
6665;SDS011;3369;49.906;8.598;2023-03-03T00:43:36;9.93;;;7.50;;
6665;SDS011;3369;49.906;8.598;2023-03-03T00:46:02;11.70;;;8.40;;
6665;SDS011;3369;49.906;8.598;2023-03-03T00:48:31;12.33;;;8.60;;
6665;SDS011;3369;49.906;8.598;2023-03-03T00:53:55;12.33;;;8.97;;
6665;SDS011;3369;49.906;8.598;2023-03-03T00:56:22;12.20;;;8.33;;
6665;SDS011;3369;49.906;8.598;2023-03-03T00:58:48;12.60;;;9.10;;
6665;SDS011;3369;49.906;8.598;2023-03-03T01:01:15;9.97;;;7.90;;
6665;SDS011;3369;49.906;8.598;2023-03-03T01:03:41;12.97;;;8.37;;
6665;SDS011;3369;49.906;8.598;2023-03-03T01:06:08;11.17;;;7.97;;
6665;SDS011;3369;49.906;8.598;2023-03-03T01:29:20;11.53;;;7.13;;
6665;SDS011;3369;49.906;8.598;2023-03-03T01:31:46;10.30;;;7.70;;
6665;SDS011;3369;49.906;8.598;2023-03-03T01:34:11;11.60;;;8.77;;
6665;SDS011;3369;49.906;8.598;2023-03-03T01:36:37;12.83;;;9.30;;
6665;SDS011;3369;49.906;8.598;2023-03-03T01:39:03;9.63;;;7.07;;
6665;SDS011;3369;49.906;8.598;2023-03-03T01:41:29;8.53;;;6.90;;
6665;SDS011;3369;49.906;8.598;2023-03-03T01:43:59;11.33;;;7.50;;
6665;SDS011;3369;49.906;8.598;2023-03-03T01:49:00;10.10;;;7.47;;
6665;SDS011;3369;49.906;8.598;2023-03-03T01:51:34;12.67;;;8.50;;
6665;SDS011;3369;49.906;8.598;2023-03-03T01:54:04;13.07;;;7.70;;
6665;SDS011;3369;49.906;8.598;2023-03-03T01:56:38;10.53;;;7.83;;
6665;SDS011;3369;49.906;8.598;2023-03-03T01:59:20;13.17;;;8.93;;
6665;SDS011;3369;49.906;8.598;2023-03-03T02:01:49;12.03;;;8.47;;
6665;SDS011;3369;49.906;8.598;2023-03-03T02:04:16;11.47;;;8.90;;
6665;SDS011;3369;49.906;8.598;2023-03-03T02:06:43;11.80;;;8.00;;
6665;SDS011;3369;49.906;8.598;2023-03-03T02:09:19;12.00;;;8.53;;
6665;SDS011;3369;49.906;8.598;2023-03-03T02:12:42;10.73;;;8.10;;
6665;SDS011;3369;49.906;8.598;2023-03-03T02:15:33;12.20;;;8.20;;
6665;SDS011;3369;49.906;8.598;2023-03-03T02:18:03;11.30;;;7.73;;
6665;SDS011;3369;49.906;8.598;2023-03-03T02:23:32;10.63;;;8.40;;
6665;SDS011;3369;49.906;8.598;2023-03-03T02:26:11;12.83;;;8.97;;
6665;SDS011;3369;49.906;8.598;2023-03-03T02:28:39;10.17;;;8.13;;
6665;SDS011;3369;49.906;8.598;2023-03-03T02:31:07;12.03;;;8.90;;
6665;SDS011;3369;49.906;8.598;2023-03-03T02:33:37;17.23;;;10.10;;
6665;SDS011;3369;49.906;8.598;2023-03-03T02:36:18;16.80;;;10.50;;
6665;SDS011;3369;49.906;8.598;2023-03-03T02:41:32;15.23;;;10.23;;
6665;SDS011;3369;49.906;8.598;2023-03-03T02:44:19;17.00;;;11.53;;
6665;SDS011;3369;49.906;8.598;2023-03-03T02:46:56;15.23;;;10.37;;
6665;SDS011;3369;49.906;8.598;2023-03-03T02:49:28;17.63;;;11.10;;
6665;SDS011;3369;49.906;8.598;2023-03-03T02:51:59;17.80;;;11.90;;
6665;SDS011;3369;49.906;8.598;2023-03-03T02:54:27;14.50;;;10.63;;
6665;SDS011;3369;49.906;8.598;2023-03-03T02:56:57;16.37;;;11.50;;
6665;SDS011;3369;49.906;8.598;2023-03-03T02:59:24;14.60;;;10.57;;
6665;SDS011;3369;49.906;8.598;2023-03-03T03:01:50;17.53;;;11.33;;
6665;SDS011;3369;49.906;8.598;2023-03-03T03:04:20;15.43;;;11.30;;
6665;SDS011;3369;49.906;8.598;2023-03-03T03:06:48;16.00;;;10.57;;
6665;SDS011;3369;49.906;8.598;2023-03-03T03:09:15;14.33;;;10.87;;
6665;SDS011;3369;49.906;8.598;2023-03-03T03:11:43;14.87;;;9.90;;
6665;SDS011;3369;49.906;8.598;2023-03-03T03:14:13;15.00;;;10.40;;
6665;SDS011;3369;49.906;8.598;2023-03-03T03:16:39;16.97;;;11.00;;
6665;SDS011;3369;49.906;8.598;2023-03-03T03:19:06;15.97;;;11.33;;
6665;SDS011;3369;49.906;8.598;2023-03-03T03:21:35;19.23;;;12.23;;
6665;SDS011;3369;49.906;8.598;2023-03-03T03:30:52;20.70;;;14.23;;
6665;SDS011;3369;49.906;8.598;2023-03-03T03:37:54;21.80;;;13.57;;
6665;SDS011;3369;49.906;8.598;2023-03-03T03:40:20;23.67;;;15.67;;
6665;SDS011;3369;49.906;8.598;2023-03-03T03:42:46;18.83;;;13.27;;
6665;SDS011;3369;49.906;8.598;2023-03-03T03:45:15;20.40;;;13.47;;
6665;SDS011;3369;49.906;8.598;2023-03-03T03:47:41;19.33;;;13.03;;
6665;SDS011;3369;49.906;8.598;2023-03-03T03:50:07;20.27;;;13.63;;
6665;SDS011;3369;49.906;8.598;2023-03-03T03:52:33;19.90;;;14.13;;
6665;SDS011;3369;49.906;8.598;2023-03-03T03:54:59;19.03;;;13.77;;
6665;SDS011;3369;49.906;8.598;2023-03-03T03:57:25;17.50;;;12.33;;
6665;SDS011;3369;49.906;8.598;2023-03-03T03:59:51;18.23;;;13.50;;
6665;SDS011;3369;49.906;8.598;2023-03-03T04:02:17;21.70;;;13.60;;
6665;SDS011;3369;49.906;8.598;2023-03-03T04:04:45;19.70;;;13.43;;
6665;SDS011;3369;49.906;8.598;2023-03-03T04:07:11;18.53;;;12.77;;
6665;SDS011;3369;49.906;8.598;2023-03-03T04:09:37;19.10;;;12.20;;
6665;SDS011;3369;49.906;8.598;2023-03-03T04:12:03;20.17;;;13.63;;
6665;SDS011;3369;49.906;8.598;2023-03-03T04:14:29;21.40;;;13.73;;
6665;SDS011;3369;49.906;8.598;2023-03-03T04:16:55;20.97;;;14.33;;
6665;SDS011;3369;49.906;8.598;2023-03-03T04:19:21;22.93;;;14.73;;
6665;SDS011;3369;49.906;8.598;2023-03-03T04:21:48;27.10;;;16.30;;
6665;SDS011;3369;49.906;8.598;2023-03-03T04:24:13;28.57;;;17.53;;
6665;SDS011;3369;49.906;8.598;2023-03-03T04:26:47;30.63;;;18.77;;
6665;SDS011;3369;49.906;8.598;2023-03-03T04:29:13;30.13;;;18.53;;
6665;SDS011;3369;49.906;8.598;2023-03-03T04:31:38;30.30;;;18.77;;
6665;SDS011;3369;49.906;8.598;2023-03-03T04:34:04;32.90;;;18.97;;
6665;SDS011;3369;49.906;8.598;2023-03-03T04:36:32;29.97;;;18.77;;
6665;SDS011;3369;49.906;8.598;2023-03-03T04:38:58;28.00;;;19.17;;
6665;SDS011;3369;49.906;8.598;2023-03-03T04:41:24;34.43;;;20.67;;
6665;SDS011;3369;49.906;8.598;2023-03-03T04:43:50;34.47;;;20.00;;
6665;SDS011;3369;49.906;8.598;2023-03-03T04:46:15;34.50;;;20.57;;
6665;SDS011;3369;49.906;8.598;2023-03-03T04:48:41;33.67;;;19.47;;
6665;SDS011;3369;49.906;8.598;2023-03-03T04:51:07;38.57;;;22.13;;
6665;SDS011;3369;49.906;8.598;2023-03-03T04:53:33;32.23;;;20.20;;
6665;SDS011;3369;49.906;8.598;2023-03-03T04:56:00;36.93;;;25.47;;
6665;SDS011;3369;49.906;8.598;2023-03-03T04:58:26;35.57;;;22.87;;
6665;SDS011;3369;49.906;8.598;2023-03-03T05:00:52;36.37;;;22.53;;
6665;SDS011;3369;49.906;8.598;2023-03-03T05:03:19;34.13;;;20.73;;
6665;SDS011;3369;49.906;8.598;2023-03-03T05:05:46;32.87;;;21.40;;
6665;SDS011;3369;49.906;8.598;2023-03-03T05:08:12;36.73;;;22.50;;
6665;SDS011;3369;49.906;8.598;2023-03-03T05:10:38;35.40;;;21.70;;
6665;SDS011;3369;49.906;8.598;2023-03-03T05:13:04;42.00;;;21.77;;
6665;SDS011;3369;49.906;8.598;2023-03-03T05:15:36;36.10;;;22.30;;
6665;SDS011;3369;49.906;8.598;2023-03-03T05:21:40;37.10;;;21.57;;
6665;SDS011;3369;49.906;8.598;2023-03-03T05:24:09;35.67;;;22.60;;
6665;SDS011;3369;49.906;8.598;2023-03-03T05:26:36;36.83;;;21.17;;
6665;SDS011;3369;49.906;8.598;2023-03-03T05:29:03;34.60;;;22.33;;
6665;SDS011;3369;49.906;8.598;2023-03-03T05:31:29;36.47;;;21.40;;
6665;SDS011;3369;49.906;8.598;2023-03-03T05:33:54;40.53;;;22.60;;
6665;SDS011;3369;49.906;8.598;2023-03-03T05:36:20;39.77;;;23.00;;
6665;SDS011;3369;49.906;8.598;2023-03-03T05:38:46;39.70;;;23.10;;
6665;SDS011;3369;49.906;8.598;2023-03-03T05:41:12;36.10;;;22.03;;
6665;SDS011;3369;49.906;8.598;2023-03-03T05:43:38;39.23;;;22.53;;
6665;SDS011;3369;49.906;8.598;2023-03-03T05:46:04;36.57;;;22.80;;
6665;SDS011;3369;49.906;8.598;2023-03-03T05:48:38;35.07;;;21.90;;
6665;SDS011;3369;49.906;8.598;2023-03-03T05:51:04;39.23;;;23.03;;
6665;SDS011;3369;49.906;8.598;2023-03-03T05:53:31;36.30;;;21.37;;
6665;SDS011;3369;49.906;8.598;2023-03-03T05:55:56;38.80;;;23.93;;
6665;SDS011;3369;49.906;8.598;2023-03-03T05:58:22;46.57;;;24.43;;
6665;SDS011;3369;49.906;8.598;2023-03-03T06:00:48;41.77;;;25.30;;
6665;SDS011;3369;49.906;8.598;2023-03-03T06:03:14;40.33;;;23.17;;
6665;SDS011;3369;49.906;8.598;2023-03-03T06:05:41;40.57;;;22.80;;
6665;SDS011;3369;49.906;8.598;2023-03-03T06:08:07;43.03;;;24.63;;
6665;SDS011;3369;49.906;8.598;2023-03-03T06:10:33;42.73;;;25.33;;
6665;SDS011;3369;49.906;8.598;2023-03-03T06:12:59;41.47;;;23.70;;
6665;SDS011;3369;49.906;8.598;2023-03-03T06:15:27;38.83;;;24.33;;
6665;SDS011;3369;49.906;8.598;2023-03-03T06:17:53;41.07;;;25.77;;
6665;SDS011;3369;49.906;8.598;2023-03-03T06:20:22;37.80;;;24.93;;
6665;SDS011;3369;49.906;8.598;2023-03-03T06:22:48;42.50;;;25.70;;
6665;SDS011;3369;49.906;8.598;2023-03-03T06:25:46;39.00;;;23.07;;
6665;SDS011;3369;49.906;8.598;2023-03-03T06:28:12;42.43;;;23.23;;
6665;SDS011;3369;49.906;8.598;2023-03-03T06:30:39;37.50;;;22.97;;
6665;SDS011;3369;49.906;8.598;2023-03-03T06:33:05;39.07;;;23.00;;
6665;SDS011;3369;49.906;8.598;2023-03-03T06:35:30;38.53;;;21.97;;
6665;SDS011;3369;49.906;8.598;2023-03-03T06:37:56;36.87;;;23.10;;
6665;SDS011;3369;49.906;8.598;2023-03-03T06:40:22;39.03;;;23.00;;
6665;SDS011;3369;49.906;8.598;2023-03-03T06:42:49;39.70;;;23.77;;
6665;SDS011;3369;49.906;8.598;2023-03-03T06:45:15;43.50;;;25.07;;
6665;SDS011;3369;49.906;8.598;2023-03-03T06:47:41;42.43;;;24.20;;
6665;SDS011;3369;49.906;8.598;2023-03-03T06:50:07;43.30;;;25.93;;
6665;SDS011;3369;49.906;8.598;2023-03-03T07:16:07;51.70;;;27.17;;
6665;SDS011;3369;49.906;8.598;2023-03-03T07:18:37;50.00;;;26.57;;
6665;SDS011;3369;49.906;8.598;2023-03-03T07:21:18;54.60;;;29.77;;
6665;SDS011;3369;49.906;8.598;2023-03-03T07:23:56;54.30;;;28.70;;
6665;SDS011;3369;49.906;8.598;2023-03-03T07:26:27;52.83;;;29.27;;
6665;SDS011;3369;49.906;8.598;2023-03-03T07:33:51;48.77;;;26.93;;
6665;SDS011;3369;49.906;8.598;2023-03-03T07:36:26;54.50;;;29.67;;
6665;SDS011;3369;49.906;8.598;2023-03-03T07:39:01;48.63;;;28.70;;
6665;SDS011;3369;49.906;8.598;2023-03-03T07:41:39;51.37;;;27.57;;
6665;SDS011;3369;49.906;8.598;2023-03-03T07:44:05;52.67;;;28.43;;
6665;SDS011;3369;49.906;8.598;2023-03-03T07:47:44;54.37;;;27.47;;
6665;SDS011;3369;49.906;8.598;2023-03-03T07:50:17;53.00;;;28.63;;
6665;SDS011;3369;49.906;8.598;2023-03-03T07:55:40;54.13;;;27.20;;
6665;SDS011;3369;49.906;8.598;2023-03-03T08:03:45;46.17;;;27.10;;
6665;SDS011;3369;49.906;8.598;2023-03-03T08:08:48;46.63;;;27.10;;
6665;SDS011;3369;49.906;8.598;2023-03-03T08:11:14;49.00;;;28.03;;
6665;SDS011;3369;49.906;8.598;2023-03-03T08:13:40;45.67;;;27.10;;
6665;SDS011;3369;49.906;8.598;2023-03-03T08:18:34;47.03;;;27.40;;
6665;SDS011;3369;49.906;8.598;2023-03-03T08:21:06;49.60;;;27.90;;
6665;SDS011;3369;49.906;8.598;2023-03-03T08:23:47;47.80;;;26.20;;
6665;SDS011;3369;49.906;8.598;2023-03-03T08:26:17;46.63;;;27.03;;
6665;SDS011;3369;49.906;8.598;2023-03-03T08:28:46;46.27;;;27.13;;
6665;SDS011;3369;49.906;8.598;2023-03-03T08:31:12;45.43;;;27.33;;
6665;SDS011;3369;49.906;8.598;2023-03-03T08:33:38;49.30;;;27.00;;
6665;SDS011;3369;49.906;8.598;2023-03-03T08:36:04;41.80;;;26.57;;
6665;SDS011;3369;49.906;8.598;2023-03-03T08:38:31;48.00;;;29.00;;
6665;SDS011;3369;49.906;8.598;2023-03-03T08:40:57;55.73;;;29.13;;
6665;SDS011;3369;49.906;8.598;2023-03-03T08:43:23;45.67;;;26.93;;
6665;SDS011;3369;49.906;8.598;2023-03-03T08:45:50;46.47;;;27.77;;
6665;SDS011;3369;49.906;8.598;2023-03-03T08:48:17;45.80;;;27.03;;
6665;SDS011;3369;49.906;8.598;2023-03-03T08:50:43;46.47;;;27.27;;
6665;SDS011;3369;49.906;8.598;2023-03-03T08:53:10;42.17;;;25.77;;
6665;SDS011;3369;49.906;8.598;2023-03-03T08:55:37;43.70;;;25.63;;
6665;SDS011;3369;49.906;8.598;2023-03-03T08:58:02;43.27;;;25.70;;
6665;SDS011;3369;49.906;8.598;2023-03-03T09:00:28;38.67;;;23.87;;
6665;SDS011;3369;49.906;8.598;2023-03-03T09:02:54;39.33;;;22.53;;
6665;SDS011;3369;49.906;8.598;2023-03-03T09:05:20;39.43;;;23.90;;
6665;SDS011;3369;49.906;8.598;2023-03-03T09:07:47;37.87;;;24.30;;
6665;SDS011;3369;49.906;8.598;2023-03-03T09:10:17;41.10;;;25.50;;
6665;SDS011;3369;49.906;8.598;2023-03-03T09:12:53;37.07;;;22.83;;
6665;SDS011;3369;49.906;8.598;2023-03-03T09:15:29;37.00;;;24.10;;
6665;SDS011;3369;49.906;8.598;2023-03-03T09:17:58;38.63;;;23.90;;
6665;SDS011;3369;49.906;8.598;2023-03-03T09:26:14;38.37;;;23.87;;
6665;SDS011;3369;49.906;8.598;2023-03-03T09:28:50;36.20;;;23.20;;
6665;SDS011;3369;49.906;8.598;2023-03-03T09:34:17;36.37;;;22.97;;
6665;SDS011;3369;49.906;8.598;2023-03-03T09:36:47;41.97;;;24.53;;
6665;SDS011;3369;49.906;8.598;2023-03-03T09:39:18;37.43;;;21.87;;
6665;SDS011;3369;49.906;8.598;2023-03-03T09:44:48;35.60;;;22.50;;
6665;SDS011;3369;49.906;8.598;2023-03-03T10:12:32;36.33;;;21.77;;
6665;SDS011;3369;49.906;8.598;2023-03-03T10:20:37;32.93;;;20.70;;
6665;SDS011;3369;49.906;8.598;2023-03-03T10:26:06;35.70;;;22.90;;
6665;SDS011;3369;49.906;8.598;2023-03-03T10:36:54;31.53;;;20.27;;
6665;SDS011;3369;49.906;8.598;2023-03-03T10:51:41;34.13;;;21.40;;
6665;SDS011;3369;49.906;8.598;2023-03-03T10:56:57;28.77;;;20.33;;
6665;SDS011;3369;49.906;8.598;2023-03-03T10:59:33;28.30;;;19.43;;
6665;SDS011;3369;49.906;8.598;2023-03-03T11:02:24;27.97;;;17.77;;
6665;SDS011;3369;49.906;8.598;2023-03-03T11:23:19;25.20;;;16.50;;
6665;SDS011;3369;49.906;8.598;2023-03-03T11:25:50;23.37;;;16.83;;
6665;SDS011;3369;49.906;8.598;2023-03-03T11:28:27;27.17;;;16.40;;
6665;SDS011;3369;49.906;8.598;2023-03-03T11:36:44;21.67;;;14.40;;
6665;SDS011;3369;49.906;8.598;2023-03-03T11:39:19;22.83;;;15.93;;
6665;SDS011;3369;49.906;8.598;2023-03-03T11:46:57;20.40;;;14.37;;
6665;SDS011;3369;49.906;8.598;2023-03-03T11:52:20;20.20;;;13.33;;
6665;SDS011;3369;49.906;8.598;2023-03-03T11:54:59;19.50;;;13.77;;
6665;SDS011;3369;49.906;8.598;2023-03-03T12:05:53;19.90;;;12.77;;
6665;SDS011;3369;49.906;8.598;2023-03-03T12:11:24;18.67;;;13.60;;
6665;SDS011;3369;49.906;8.598;2023-03-03T12:17:11;19.87;;;12.90;;
6665;SDS011;3369;49.906;8.598;2023-03-03T12:22:26;18.93;;;12.73;;
6665;SDS011;3369;49.906;8.598;2023-03-03T12:25:21;20.07;;;12.47;;
6665;SDS011;3369;49.906;8.598;2023-03-03T12:27:49;18.37;;;12.30;;
6665;SDS011;3369;49.906;8.598;2023-03-03T12:38:47;15.53;;;11.40;;
6665;SDS011;3369;49.906;8.598;2023-03-03T12:46:44;20.47;;;13.30;;
6665;SDS011;3369;49.906;8.598;2023-03-03T12:49:25;18.57;;;11.67;;
6665;SDS011;3369;49.906;8.598;2023-03-03T12:57:44;17.90;;;12.23;;
6665;SDS011;3369;49.906;8.598;2023-03-03T13:32:29;16.70;;;10.83;;
6665;SDS011;3369;49.906;8.598;2023-03-03T13:37:59;13.50;;;9.27;;
6665;SDS011;3369;49.906;8.598;2023-03-03T13:40:47;17.80;;;12.63;;
6665;SDS011;3369;49.906;8.598;2023-03-03T13:43:37;18.00;;;10.53;;
6665;SDS011;3369;49.906;8.598;2023-03-03T14:10:35;18.03;;;11.20;;
6665;SDS011;3369;49.906;8.598;2023-03-03T14:13:20;16.53;;;10.13;;
6665;SDS011;3369;49.906;8.598;2023-03-03T14:15:58;14.23;;;9.77;;
6665;SDS011;3369;49.906;8.598;2023-03-03T14:18:37;15.20;;;9.73;;
6665;SDS011;3369;49.906;8.598;2023-03-03T14:21:17;14.60;;;9.60;;
6665;SDS011;3369;49.906;8.598;2023-03-03T14:23:51;14.07;;;9.63;;
6665;SDS011;3369;49.906;8.598;2023-03-03T14:26:31;15.23;;;10.13;;
6665;SDS011;3369;49.906;8.598;2023-03-03T14:31:55;13.20;;;9.33;;
6665;SDS011;3369;49.906;8.598;2023-03-03T14:39:46;14.63;;;10.37;;
6665;SDS011;3369;49.906;8.598;2023-03-03T14:42:54;13.57;;;9.27;;
6665;SDS011;3369;49.906;8.598;2023-03-03T14:48:16;14.77;;;9.83;;
6665;SDS011;3369;49.906;8.598;2023-03-03T14:53:37;24.30;;;14.97;;
6665;SDS011;3369;49.906;8.598;2023-03-03T14:56:14;26.23;;;16.30;;
6665;SDS011;3369;49.906;8.598;2023-03-03T14:58:49;37.00;;;22.47;;
6665;SDS011;3369;49.906;8.598;2023-03-03T15:01:28;34.23;;;23.93;;
6665;SDS011;3369;49.906;8.598;2023-03-03T15:06:42;31.87;;;22.30;;
6665;SDS011;3369;49.906;8.598;2023-03-03T15:09:36;32.17;;;22.17;;
6665;SDS011;3369;49.906;8.598;2023-03-03T15:12:24;32.13;;;20.07;;
6665;SDS011;3369;49.906;8.598;2023-03-03T15:14:52;32.33;;;20.17;;
6665;SDS011;3369;49.906;8.598;2023-03-03T15:26:22;14.30;;;9.70;;
6665;SDS011;3369;49.906;8.598;2023-03-03T15:29:12;11.90;;;8.90;;
6665;SDS011;3369;49.906;8.598;2023-03-03T15:31:51;12.20;;;8.67;;
6665;SDS011;3369;49.906;8.598;2023-03-03T15:43:02;11.20;;;7.40;;
6665;SDS011;3369;49.906;8.598;2023-03-03T16:00:05;11.70;;;7.60;;
6665;SDS011;3369;49.906;8.598;2023-03-03T16:02:55;9.57;;;6.87;;
6665;SDS011;3369;49.906;8.598;2023-03-03T16:05:33;9.47;;;7.50;;
6665;SDS011;3369;49.906;8.598;2023-03-03T16:08:18;8.73;;;6.90;;
6665;SDS011;3369;49.906;8.598;2023-03-03T16:25:19;11.33;;;7.40;;
6665;SDS011;3369;49.906;8.598;2023-03-03T16:30:25;12.33;;;6.53;;
6665;SDS011;3369;49.906;8.598;2023-03-03T16:33:01;9.67;;;6.77;;
6665;SDS011;3369;49.906;8.598;2023-03-03T16:35:43;8.77;;;6.17;;
6665;SDS011;3369;49.906;8.598;2023-03-03T16:39:03;8.90;;;6.60;;
6665;SDS011;3369;49.906;8.598;2023-03-03T16:42:16;7.93;;;5.93;;
6665;SDS011;3369;49.906;8.598;2023-03-03T16:50:35;9.63;;;6.33;;
6665;SDS011;3369;49.906;8.598;2023-03-03T17:06:27;8.43;;;6.23;;
6665;SDS011;3369;49.906;8.598;2023-03-03T17:09:22;10.80;;;7.43;;
6665;SDS011;3369;49.906;8.598;2023-03-03T17:17:12;9.13;;;6.30;;
6665;SDS011;3369;49.906;8.598;2023-03-03T17:26:08;8.57;;;5.33;;
6665;SDS011;3369;49.906;8.598;2023-03-03T17:41:57;8.63;;;5.95;;
6665;SDS011;3369;49.906;8.598;2023-03-03T17:44:37;6.67;;;5.13;;
6665;SDS011;3369;49.906;8.598;2023-03-03T17:47:34;6.90;;;5.03;;
6665;SDS011;3369;49.906;8.598;2023-03-03T17:50:29;7.63;;;5.27;;
6665;SDS011;3369;49.906;8.598;2023-03-03T17:56:02;6.13;;;4.83;;
6665;SDS011;3369;49.906;8.598;2023-03-03T17:58:39;7.27;;;5.17;;
6665;SDS011;3369;49.906;8.598;2023-03-03T18:04:13;7.50;;;5.73;;
6665;SDS011;3369;49.906;8.598;2023-03-03T18:13:01;7.87;;;5.70;;
6665;SDS011;3369;49.906;8.598;2023-03-03T18:18:49;7.70;;;5.00;;
6665;SDS011;3369;49.906;8.598;2023-03-03T18:21:26;8.77;;;5.30;;
6665;SDS011;3369;49.906;8.598;2023-03-03T18:49:01;7.50;;;5.33;;
6665;SDS011;3369;49.906;8.598;2023-03-03T18:59:37;10.40;;;4.87;;
6665;SDS011;3369;49.906;8.598;2023-03-03T19:04:37;5.90;;;4.40;;
6665;SDS011;3369;49.906;8.598;2023-03-03T19:29:21;4.90;;;3.63;;
6665;SDS011;3369;49.906;8.598;2023-03-03T19:32:10;5.10;;;3.63;;
6665;SDS011;3369;49.906;8.598;2023-03-03T19:48:11;6.57;;;4.67;;
6665;SDS011;3369;49.906;8.598;2023-03-03T19:58:24;5.43;;;4.53;;
6665;SDS011;3369;49.906;8.598;2023-03-03T20:07:20;7.67;;;5.90;;
6665;SDS011;3369;49.906;8.598;2023-03-03T20:10:00;7.23;;;5.53;;
6665;SDS011;3369;49.906;8.598;2023-03-03T20:12:51;8.00;;;5.73;;
6665;SDS011;3369;49.906;8.598;2023-03-03T20:21:37;9.57;;;6.60;;
6665;SDS011;3369;49.906;8.598;2023-03-03T20:30:55;8.77;;;5.73;;
6665;SDS011;3369;49.906;8.598;2023-03-03T20:33:44;12.20;;;6.07;;
6665;SDS011;3369;49.906;8.598;2023-03-03T20:54:55;7.53;;;5.53;;
6665;SDS011;3369;49.906;8.598;2023-03-03T20:58:04;9.83;;;6.37;;
6665;SDS011;3369;49.906;8.598;2023-03-03T21:00:55;8.57;;;6.47;;
6665;SDS011;3369;49.906;8.598;2023-03-03T21:06:22;12.47;;;7.00;;
6665;SDS011;3369;49.906;8.598;2023-03-03T21:09:05;11.90;;;7.00;;
6665;SDS011;3369;49.906;8.598;2023-03-03T21:25:03;10.90;;;6.33;;
6665;SDS011;3369;49.906;8.598;2023-03-03T21:31:17;8.17;;;5.37;;
6665;SDS011;3369;49.906;8.598;2023-03-03T21:33:50;9.03;;;5.60;;
6665;SDS011;3369;49.906;8.598;2023-03-03T21:43:35;9.93;;;6.07;;
6665;SDS011;3369;49.906;8.598;2023-03-03T21:46:08;9.10;;;5.83;;
6665;SDS011;3369;49.906;8.598;2023-03-03T21:48:38;11.17;;;6.27;;
6665;SDS011;3369;49.906;8.598;2023-03-03T21:51:09;9.23;;;6.03;;
6665;SDS011;3369;49.906;8.598;2023-03-03T21:53:38;9.90;;;6.27;;
6665;SDS011;3369;49.906;8.598;2023-03-03T21:56:05;7.60;;;5.67;;
6665;SDS011;3369;49.906;8.598;2023-03-03T21:58:34;9.00;;;5.90;;
6665;SDS011;3369;49.906;8.598;2023-03-03T22:01:04;9.13;;;5.33;;
6665;SDS011;3369;49.906;8.598;2023-03-03T22:03:30;8.57;;;6.00;;
6665;SDS011;3369;49.906;8.598;2023-03-03T22:05:57;9.27;;;5.90;;
6665;SDS011;3369;49.906;8.598;2023-03-03T22:08:32;11.40;;;6.60;;
6665;SDS011;3369;49.906;8.598;2023-03-03T22:10:58;10.97;;;6.27;;
6665;SDS011;3369;49.906;8.598;2023-03-03T22:13:52;9.77;;;6.10;;
6665;SDS011;3369;49.906;8.598;2023-03-03T22:16:27;10.40;;;6.27;;
6665;SDS011;3369;49.906;8.598;2023-03-03T22:19:03;8.27;;;5.70;;
6665;SDS011;3369;49.906;8.598;2023-03-03T22:21:30;8.27;;;5.27;;
6665;SDS011;3369;49.906;8.598;2023-03-03T22:28:00;8.13;;;5.20;;
6665;SDS011;3369;49.906;8.598;2023-03-03T22:30:28;7.57;;;5.93;;
6665;SDS011;3369;49.906;8.598;2023-03-03T22:32:57;7.47;;;4.63;;
6665;SDS011;3369;49.906;8.598;2023-03-03T22:42:08;7.10;;;5.20;;
6665;SDS011;3369;49.906;8.598;2023-03-03T22:44:37;7.93;;;5.07;;
6665;SDS011;3369;49.906;8.598;2023-03-03T23:14:25;8.00;;;5.20;;
6665;SDS011;3369;49.906;8.598;2023-03-03T23:27:36;11.03;;;6.60;;
6665;SDS011;3369;49.906;8.598;2023-03-03T23:30:06;8.60;;;6.13;;
6665;SDS011;3369;49.906;8.598;2023-03-03T23:32:33;10.67;;;6.20;;
6665;SDS011;3369;49.906;8.598;2023-03-03T23:34:59;10.20;;;6.63;;
6665;SDS011;3369;49.906;8.598;2023-03-03T23:37:25;9.83;;;6.70;;
6665;SDS011;3369;49.906;8.598;2023-03-03T23:39:51;9.90;;;6.63;;
6665;SDS011;3369;49.906;8.598;2023-03-03T23:42:17;10.77;;;6.40;;
6665;SDS011;3369;49.906;8.598;2023-03-03T23:44:43;12.63;;;7.23;;
6665;SDS011;3369;49.906;8.598;2023-03-03T23:47:17;8.60;;;6.10;;
6665;SDS011;3369;49.906;8.598;2023-03-03T23:53:39;7.60;;;5.30;;
6665;SDS011;3369;49.906;8.598;2023-03-03T23:56:11;10.87;;;6.53;;
6665;SDS011;3369;49.906;8.598;2023-03-03T23:58:37;9.93;;;6.17;;
